Smithville, New Jersey
Current Conditions -  °F | °C
As of 10:54 AM on Wednesday 26 Nov 2014 (Local Time) from KACY Reporting Station
Light Rain Light Rain  
Wind Chill: 33°   Ceiling: 600
Heat Index: 41°   Visibility: 2.5mi
Dew Point: 40°   Wind: 15mph
Humidity: 96%   Direction: 10°N
Pressure: 29.95"   Gusts: 23mph
Location:  39.4315°N, 74.5003°W
Report Text: KACY 261554Z 01013G20KT 2 1/2SM -RA BR OVC006 05/04 A2995 RMK AO2 SFC VIS 3 SLP143 P0008 T00500044
Loading
Personal Weather Stations






























Interactive Weather Map New forecast layout! Learn more

10-Day Weather Forecast

Advertisements
Track Severe Weather on mobile